Terminal Aerodrome Forecast
Issued by NWS

Home | Current Version | Previous Version | Text Only | Print | Product List | Glossary Off
Versions: 1 2 3 4 5 6 7 8 9 10 11 12 13 14 15 16 17 18

000
FTUS43 KICT 242329
TAFSLN
TAF
KSLN 242329Z 2500/2524 VRB03KT P6SM BKN100
     FM250300 03004KT P6SM VCSH BKN100
     FM251300 04005KT P6SM BKN150
     FM251500 02004KT P6SM BKN100
     FM251700 06005KT P6SM VCSH BKN080=

USA.gov is the U.S. government's official web portal to all federal, state and local government web resources and services.